Mountain Home Air Force Base Mountain Home US
ICAO: KMUO
IATA: MUO
Category: Large
Scheduled Services: No

Elevation: 2996 ft
TransAlt. 18000 ft.

Airport Communications:
APP:124.8
ATIS:27.35
CLNC DEL:127.1
DEP:37.12
GND:120.5
PMSV METRO:34.25
ACC COMD POST:38.13
PTD:138.9
BOISE RDO:122.6
TWR:133.85

KMUO Zoom In..

If you have problems with the map follow the link
https://www.worldairports.se/pages/airport.php?
ICAO=KMUO

Runways:

(A) RW 12 length 13508 ft width 200 ft
ILS 110.30 / hdg 117

(B) RW 30 length 13508 ft width 200 ft
ILS 111.70 / hdg 297

Location; KMUO
Day. 18 / Time. 21.58 Zulu
* Altimeter: 30.29
* Temperature: 07° c. 44.6°f.
* Wind from: 020° Speed 03 kn.
Dewpoint: 00° c.
Visibility: 10 Statute Miles.
Clouds: Broken 16000 ft.
Clouds: Broken 18000 ft.

KMUO 182158Z AUTO 02003KT 10SM BKN160 BKN180 07/00 A3029 RMK AO2 SLP270 T00660003 $


Wind From 020°
Speed 03 kn.

 
 
jpsmedia.com for Web Design worldairports.se 2019   terms of use